sensor_id;sensor_type;location;lat;lon;timestamp;temperature;humidity
22526;DHT22;11429;50.842;4.386;2022-08-18T00:02:16;20.10;99.90
22526;DHT22;11429;50.842;4.386;2022-08-18T00:04:43;20.00;99.90
22526;DHT22;11429;50.842;4.386;2022-08-18T00:07:14;20.00;99.90
22526;DHT22;11429;50.842;4.386;2022-08-18T00:09:40;20.20;99.90
22526;DHT22;11429;50.842;4.386;2022-08-18T00:12:12;20.10;99.90
22526;DHT22;11429;50.842;4.386;2022-08-18T00:14:38;20.30;99.90
22526;DHT22;11429;50.842;4.386;2022-08-18T00:17:04;20.50;99.90
22526;DHT22;11429;50.842;4.386;2022-08-18T00:19:30;20.40;99.90
22526;DHT22;11429;50.842;4.386;2022-08-18T00:21:55;20.20;99.90
22526;DHT22;11429;50.842;4.386;2022-08-18T00:24:25;20.10;99.90
22526;DHT22;11429;50.842;4.386;2022-08-18T00:26:51;20.40;99.90
22526;DHT22;11429;50.842;4.386;2022-08-18T00:29:17;20.40;99.90
22526;DHT22;11429;50.842;4.386;2022-08-18T00:31:42;20.60;99.90
22526;DHT22;11429;50.842;4.386;2022-08-18T00:34:08;20.70;99.90
22526;DHT22;11429;50.842;4.386;2022-08-18T00:36:34;20.70;99.90
22526;DHT22;11429;50.842;4.386;2022-08-18T00:39:00;20.80;99.90
22526;DHT22;11429;50.842;4.386;2022-08-18T00:41:27;20.80;99.90
22526;DHT22;11429;50.842;4.386;2022-08-18T00:43:54;20.40;99.90
22526;DHT22;11429;50.842;4.386;2022-08-18T00:46:31;20.10;99.90
22526;DHT22;11429;50.842;4.386;2022-08-18T00:48:58;20.00;99.90
22526;DHT22;11429;50.842;4.386;2022-08-18T00:54:20;20.10;99.90
22526;DHT22;11429;50.842;4.386;2022-08-18T00:56:53;20.10;99.90
22526;DHT22;11429;50.842;4.386;2022-08-18T00:59:35;20.10;99.90
22526;DHT22;11429;50.842;4.386;2022-08-18T01:02:05;19.90;99.90
22526;DHT22;11429;50.842;4.386;2022-08-18T01:04:46;19.80;99.90
22526;DHT22;11429;50.842;4.386;2022-08-18T01:07:26;19.90;99.90
22526;DHT22;11429;50.842;4.386;2022-08-18T01:09:55;20.20;99.90
22526;DHT22;11429;50.842;4.386;2022-08-18T01:12:24;20.10;99.90
22526;DHT22;11429;50.842;4.386;2022-08-18T01:14:51;19.70;99.90
22526;DHT22;11429;50.842;4.386;2022-08-18T01:17:17;19.40;99.90
22526;DHT22;11429;50.842;4.386;2022-08-18T01:20:02;19.60;99.90
22526;DHT22;11429;50.842;4.386;2022-08-18T01:25:15;20.00;99.90
22526;DHT22;11429;50.842;4.386;2022-08-18T01:28:00;20.20;99.90
22526;DHT22;11429;50.842;4.386;2022-08-18T01:30:29;20.40;99.90
22526;DHT22;11429;50.842;4.386;2022-08-18T01:32:57;20.50;99.90
22526;DHT22;11429;50.842;4.386;2022-08-18T01:35:25;20.60;99.90
22526;DHT22;11429;50.842;4.386;2022-08-18T01:37:54;20.50;99.90
22526;DHT22;11429;50.842;4.386;2022-08-18T01:40:22;20.20;99.90
22526;DHT22;11429;50.842;4.386;2022-08-18T01:42:49;19.90;99.90
22526;DHT22;11429;50.842;4.386;2022-08-18T01:45:16;19.70;99.90
22526;DHT22;11429;50.842;4.386;2022-08-18T01:47:43;19.80;99.90
22526;DHT22;11429;50.842;4.386;2022-08-18T01:50:10;20.00;99.90
22526;DHT22;11429;50.842;4.386;2022-08-18T01:52:38;20.30;99.90
22526;DHT22;11429;50.842;4.386;2022-08-18T01:55:04;20.50;99.90
22526;DHT22;11429;50.842;4.386;2022-08-18T01:57:32;20.80;99.90
22526;DHT22;11429;50.842;4.386;2022-08-18T02:00:00;20.70;99.90
22526;DHT22;11429;50.842;4.386;2022-08-18T02:02:28;20.40;99.90
22526;DHT22;11429;50.842;4.386;2022-08-18T02:04:59;20.20;99.90
22526;DHT22;11429;50.842;4.386;2022-08-18T02:07:26;20.30;99.90
22526;DHT22;11429;50.842;4.386;2022-08-18T02:09:52;20.30;99.90
22526;DHT22;11429;50.842;4.386;2022-08-18T02:12:18;20.30;99.90
22526;DHT22;11429;50.842;4.386;2022-08-18T02:14:45;20.40;99.90
22526;DHT22;11429;50.842;4.386;2022-08-18T02:17:11;20.30;99.90
22526;DHT22;11429;50.842;4.386;2022-08-18T02:19:43;20.20;99.90
22526;DHT22;11429;50.842;4.386;2022-08-18T02:22:13;20.20;99.90
22526;DHT22;11429;50.842;4.386;2022-08-18T02:24:39;20.30;99.90
22526;DHT22;11429;50.842;4.386;2022-08-18T02:27:06;20.30;99.90
22526;DHT22;11429;50.842;4.386;2022-08-18T02:29:33;20.20;99.90
22526;DHT22;11429;50.842;4.386;2022-08-18T02:32:00;20.00;99.90
22526;DHT22;11429;50.842;4.386;2022-08-18T02:34:25;20.00;99.90
22526;DHT22;11429;50.842;4.386;2022-08-18T02:36:51;20.00;99.90
22526;DHT22;11429;50.842;4.386;2022-08-18T02:39:18;20.10;99.90
22526;DHT22;11429;50.842;4.386;2022-08-18T02:41:44;20.30;99.90
22526;DHT22;11429;50.842;4.386;2022-08-18T02:44:10;20.60;99.90
22526;DHT22;11429;50.842;4.386;2022-08-18T02:46:36;20.70;99.90
22526;DHT22;11429;50.842;4.386;2022-08-18T02:49:04;20.50;99.90
22526;DHT22;11429;50.842;4.386;2022-08-18T02:51:30;20.50;99.90
22526;DHT22;11429;50.842;4.386;2022-08-18T02:53:56;20.50;99.90
22526;DHT22;11429;50.842;4.386;2022-08-18T02:56:27;20.10;99.90
22526;DHT22;11429;50.842;4.386;2022-08-18T02:58:55;19.90;99.90
22526;DHT22;11429;50.842;4.386;2022-08-18T03:01:22;19.90;99.90
22526;DHT22;11429;50.842;4.386;2022-08-18T03:03:49;20.10;99.90
22526;DHT22;11429;50.842;4.386;2022-08-18T03:06:16;20.30;99.90
22526;DHT22;11429;50.842;4.386;2022-08-18T03:08:42;20.40;99.90
22526;DHT22;11429;50.842;4.386;2022-08-18T03:11:08;20.40;99.90
22526;DHT22;11429;50.842;4.386;2022-08-18T03:13:34;20.40;99.90
22526;DHT22;11429;50.842;4.386;2022-08-18T03:15:59;20.50;99.90
22526;DHT22;11429;50.842;4.386;2022-08-18T03:18:25;20.40;99.90
22526;DHT22;11429;50.842;4.386;2022-08-18T03:20:51;20.20;99.90
22526;DHT22;11429;50.842;4.386;2022-08-18T03:23:16;20.10;99.90
22526;DHT22;11429;50.842;4.386;2022-08-18T03:25:45;20.20;99.90
22526;DHT22;11429;50.842;4.386;2022-08-18T03:28:11;20.30;99.90
22526;DHT22;11429;50.842;4.386;2022-08-18T03:30:37;20.30;99.90
22526;DHT22;11429;50.842;4.386;2022-08-18T03:33:03;20.20;99.90
22526;DHT22;11429;50.842;4.386;2022-08-18T03:35:29;19.90;99.90
22526;DHT22;11429;50.842;4.386;2022-08-18T03:37:58;19.80;99.90
22526;DHT22;11429;50.842;4.386;2022-08-18T03:40:23;20.10;99.90
22526;DHT22;11429;50.842;4.386;2022-08-18T03:42:49;20.30;99.90
22526;DHT22;11429;50.842;4.386;2022-08-18T03:45:15;20.30;99.90
22526;DHT22;11429;50.842;4.386;2022-08-18T03:47:40;20.80;99.90
22526;DHT22;11429;50.842;4.386;2022-08-18T03:50:06;20.90;99.90
22526;DHT22;11429;50.842;4.386;2022-08-18T03:52:32;21.20;99.90
22526;DHT22;11429;50.842;4.386;2022-08-18T03:54:58;21.30;99.90
22526;DHT22;11429;50.842;4.386;2022-08-18T03:57:24;21.00;99.90
22526;DHT22;11429;50.842;4.386;2022-08-18T03:59:50;20.90;99.90
22526;DHT22;11429;50.842;4.386;2022-08-18T04:02:15;20.90;99.90
22526;DHT22;11429;50.842;4.386;2022-08-18T04:04:42;21.20;99.90
22526;DHT22;11429;50.842;4.386;2022-08-18T04:07:09;20.90;99.90
22526;DHT22;11429;50.842;4.386;2022-08-18T04:09:37;20.90;99.90
22526;DHT22;11429;50.842;4.386;2022-08-18T04:12:08;20.90;99.90
22526;DHT22;11429;50.842;4.386;2022-08-18T04:14:37;21.00;99.90
22526;DHT22;11429;50.842;4.386;2022-08-18T04:17:03;21.00;99.90
22526;DHT22;11429;50.842;4.386;2022-08-18T04:19:29;21.10;99.90
22526;DHT22;11429;50.842;4.386;2022-08-18T04:21:56;21.30;99.90
22526;DHT22;11429;50.842;4.386;2022-08-18T04:24:23;21.40;99.90
22526;DHT22;11429;50.842;4.386;2022-08-18T04:26:50;21.50;99.90
22526;DHT22;11429;50.842;4.386;2022-08-18T04:29:19;21.40;99.90
22526;DHT22;11429;50.842;4.386;2022-08-18T04:31:49;21.30;99.90
22526;DHT22;11429;50.842;4.386;2022-08-18T04:34:16;21.30;99.90
22526;DHT22;11429;50.842;4.386;2022-08-18T04:36:42;21.10;99.90
22526;DHT22;11429;50.842;4.386;2022-08-18T04:39:09;21.10;99.90
22526;DHT22;11429;50.842;4.386;2022-08-18T04:41:36;21.20;99.90
22526;DHT22;11429;50.842;4.386;2022-08-18T04:44:05;21.30;99.90
22526;DHT22;11429;50.842;4.386;2022-08-18T04:46:41;21.10;99.90
22526;DHT22;11429;50.842;4.386;2022-08-18T04:49:09;20.80;99.90
22526;DHT22;11429;50.842;4.386;2022-08-18T04:51:38;20.80;99.90
22526;DHT22;11429;50.842;4.386;2022-08-18T04:54:04;20.90;99.90
22526;DHT22;11429;50.842;4.386;2022-08-18T04:56:34;20.90;99.90
22526;DHT22;11429;50.842;4.386;2022-08-18T04:59:07;20.60;99.90
22526;DHT22;11429;50.842;4.386;2022-08-18T05:01:43;20.30;99.90
22526;DHT22;11429;50.842;4.386;2022-08-18T05:04:13;20.40;99.90
22526;DHT22;11429;50.842;4.386;2022-08-18T05:06:41;20.70;99.90
22526;DHT22;11429;50.842;4.386;2022-08-18T05:09:09;20.90;99.90
22526;DHT22;11429;50.842;4.386;2022-08-18T05:11:36;21.00;99.90
22526;DHT22;11429;50.842;4.386;2022-08-18T05:14:05;21.30;99.90
22526;DHT22;11429;50.842;4.386;2022-08-18T05:16:32;21.40;99.90
22526;DHT22;11429;50.842;4.386;2022-08-18T05:19:02;21.50;99.90
22526;DHT22;11429;50.842;4.386;2022-08-18T05:21:29;21.50;99.90
22526;DHT22;11429;50.842;4.386;2022-08-18T05:23:55;21.70;99.90
22526;DHT22;11429;50.842;4.386;2022-08-18T05:26:21;21.80;99.90
22526;DHT22;11429;50.842;4.386;2022-08-18T05:28:47;21.60;99.90
22526;DHT22;11429;50.842;4.386;2022-08-18T05:31:16;21.30;99.90
22526;DHT22;11429;50.842;4.386;2022-08-18T05:33:43;21.30;99.90
22526;DHT22;11429;50.842;4.386;2022-08-18T05:39:14;21.40;99.90
22526;DHT22;11429;50.842;4.386;2022-08-18T05:41:52;21.10;99.90
22526;DHT22;11429;50.842;4.386;2022-08-18T05:44:25;21.00;99.90
22526;DHT22;11429;50.842;4.386;2022-08-18T05:46:54;21.00;99.90
22526;DHT22;11429;50.842;4.386;2022-08-18T05:49:21;20.70;99.90
22526;DHT22;11429;50.842;4.386;2022-08-18T05:51:51;20.70;99.90
22526;DHT22;11429;50.842;4.386;2022-08-18T05:54:20;20.40;99.90
22526;DHT22;11429;50.842;4.386;2022-08-18T05:57:11;20.80;99.90
22526;DHT22;11429;50.842;4.386;2022-08-18T05:59:40;21.40;99.90
22526;DHT22;11429;50.842;4.386;2022-08-18T06:04:54;21.50;99.90
22526;DHT22;11429;50.842;4.386;2022-08-18T06:07:47;21.10;99.90
22526;DHT22;11429;50.842;4.386;2022-08-18T06:10:14;21.20;99.90
22526;DHT22;11429;50.842;4.386;2022-08-18T06:12:43;21.70;99.90
22526;DHT22;11429;50.842;4.386;2022-08-18T06:20:18;23.40;99.90
22526;DHT22;11429;50.842;4.386;2022-08-18T06:23:02;23.90;99.90
22526;DHT22;11429;50.842;4.386;2022-08-18T06:25:48;24.40;99.90
22526;DHT22;11429;50.842;4.386;2022-08-18T06:28:20;25.50;99.90
22526;DHT22;11429;50.842;4.386;2022-08-18T06:31:19;27.00;99.90
22526;DHT22;11429;50.842;4.386;2022-08-18T06:36:36;28.90;99.90
22526;DHT22;11429;50.842;4.386;2022-08-18T06:39:26;29.00;99.90
22526;DHT22;11429;50.842;4.386;2022-08-18T06:41:54;28.70;99.90
22526;DHT22;11429;50.842;4.386;2022-08-18T06:44:24;28.60;99.90
22526;DHT22;11429;50.842;4.386;2022-08-18T06:47:13;28.50;99.90
22526;DHT22;11429;50.842;4.386;2022-08-18T06:49:50;27.20;99.90
22526;DHT22;11429;50.842;4.386;2022-08-18T06:52:30;26.60;99.90
22526;DHT22;11429;50.842;4.386;2022-08-18T06:55:16;26.10;99.90
22526;DHT22;11429;50.842;4.386;2022-08-18T06:57:57;25.70;99.90
22526;DHT22;11429;50.842;4.386;2022-08-18T07:00:27;25.40;99.90
22526;DHT22;11429;50.842;4.386;2022-08-18T07:03:18;24.90;99.90
22526;DHT22;11429;50.842;4.386;2022-08-18T07:13:40;24.40;99.90
22526;DHT22;11429;50.842;4.386;2022-08-18T07:19:09;24.00;99.90
22526;DHT22;11429;50.842;4.386;2022-08-18T07:21:36;23.90;99.90
22526;DHT22;11429;50.842;4.386;2022-08-18T07:24:12;23.80;99.90
22526;DHT22;11429;50.842;4.386;2022-08-18T07:26:59;24.20;99.90
22526;DHT22;11429;50.842;4.386;2022-08-18T07:29:27;25.40;99.90
22526;DHT22;11429;50.842;4.386;2022-08-18T07:31:54;26.40;99.90
22526;DHT22;11429;50.842;4.386;2022-08-18T07:34:53;26.90;99.90
22526;DHT22;11429;50.842;4.386;2022-08-18T07:40:09;27.50;99.90
22526;DHT22;11429;50.842;4.386;2022-08-18T07:43:08;27.20;99.90
22526;DHT22;11429;50.842;4.386;2022-08-18T07:45:40;27.10;99.90
22526;DHT22;11429;50.842;4.386;2022-08-18T07:48:14;26.40;99.90
22526;DHT22;11429;50.842;4.386;2022-08-18T07:51:04;26.00;99.90
22526;DHT22;11429;50.842;4.386;2022-08-18T07:56:58;25.60;99.90
22526;DHT22;11429;50.842;4.386;2022-08-18T08:10:38;27.80;99.90
22526;DHT22;11429;50.842;4.386;2022-08-18T08:16:07;27.50;99.90
22526;DHT22;11429;50.842;4.386;2022-08-18T08:21:16;27.50;99.90
22526;DHT22;11429;50.842;4.386;2022-08-18T08:26:22;26.90;99.90
22526;DHT22;11429;50.842;4.386;2022-08-18T08:29:24;26.80;99.90
22526;DHT22;11429;50.842;4.386;2022-08-18T08:32:05;26.10;99.90
22526;DHT22;11429;50.842;4.386;2022-08-18T08:37:04;25.20;99.90
22526;DHT22;11429;50.842;4.386;2022-08-18T08:45:17;25.60;99.90
22526;DHT22;11429;50.842;4.386;2022-08-18T08:48:08;25.50;99.90
22526;DHT22;11429;50.842;4.386;2022-08-18T08:50:48;25.70;99.90
22526;DHT22;11429;50.842;4.386;2022-08-18T08:53:25;26.00;99.90
22526;DHT22;11429;50.842;4.386;2022-08-18T08:55:58;26.30;99.90
22526;DHT22;11429;50.842;4.386;2022-08-18T08:58:30;26.10;99.90
22526;DHT22;11429;50.842;4.386;2022-08-18T09:00:59;25.80;99.90
22526;DHT22;11429;50.842;4.386;2022-08-18T09:03:52;25.90;99.90
22526;DHT22;11429;50.842;4.386;2022-08-18T09:12:02;25.50;99.90
22526;DHT22;11429;50.842;4.386;2022-08-18T09:20:27;27.10;99.90
22526;DHT22;11429;50.842;4.386;2022-08-18T09:23:09;27.60;99.90
22526;DHT22;11429;50.842;4.386;2022-08-18T09:41:56;35.00;99.90
22526;DHT22;11429;50.842;4.386;2022-08-18T09:49:55;37.70;96.90
22526;DHT22;11429;50.842;4.386;2022-08-18T09:54:59;36.30;96.00
22526;DHT22;11429;50.842;4.386;2022-08-18T09:57:36;37.00;94.90
22526;DHT22;11429;50.842;4.386;2022-08-18T10:07:50;38.50;91.30
22526;DHT22;11429;50.842;4.386;2022-08-18T10:10:30;38.60;91.20
22526;DHT22;11429;50.842;4.386;2022-08-18T10:16:34;33.10;95.70
22526;DHT22;11429;50.842;4.386;2022-08-18T10:24:52;28.90;99.90
22526;DHT22;11429;50.842;4.386;2022-08-18T10:32:59;29.30;99.90
22526;DHT22;11429;50.842;4.386;2022-08-18T10:40:39;33.00;98.60
22526;DHT22;11429;50.842;4.386;2022-08-18T10:43:22;33.70;97.20
22526;DHT22;11429;50.842;4.386;2022-08-18T10:45:55;34.70;96.20
22526;DHT22;11429;50.842;4.386;2022-08-18T10:48:27;35.00;95.20
22526;DHT22;11429;50.842;4.386;2022-08-18T11:02:03;33.40;95.90
22526;DHT22;11429;50.842;4.386;2022-08-18T11:04:41;32.60;96.90
22526;DHT22;11429;50.842;4.386;2022-08-18T11:07:11;30.80;99.10
22526;DHT22;11429;50.842;4.386;2022-08-18T11:09:41;29.20;99.90
22526;DHT22;11429;50.842;4.386;2022-08-18T11:12:10;28.40;99.90
22526;DHT22;11429;50.842;4.386;2022-08-18T11:17:26;28.70;99.90
22526;DHT22;11429;50.842;4.386;2022-08-18T11:19:56;28.80;99.90
22526;DHT22;11429;50.842;4.386;2022-08-18T11:22:25;29.30;99.90
22526;DHT22;11429;50.842;4.386;2022-08-18T11:24:51;30.10;99.90
22526;DHT22;11429;50.842;4.386;2022-08-18T11:27:20;30.10;99.70
22526;DHT22;11429;50.842;4.386;2022-08-18T11:29:47;30.50;99.90
22526;DHT22;11429;50.842;4.386;2022-08-18T11:32:43;31.10;99.10
22526;DHT22;11429;50.842;4.386;2022-08-18T11:35:15;30.90;99.10
22526;DHT22;11429;50.842;4.386;2022-08-18T11:37:55;30.40;99.80
22526;DHT22;11429;50.842;4.386;2022-08-18T11:40:29;29.80;99.90
22526;DHT22;11429;50.842;4.386;2022-08-18T11:45:50;29.20;99.90
22526;DHT22;11429;50.842;4.386;2022-08-18T11:48:42;27.90;99.90
22526;DHT22;11429;50.842;4.386;2022-08-18T11:51:15;27.10;99.90
22526;DHT22;11429;50.842;4.386;2022-08-18T11:58:51;29.90;99.90
22526;DHT22;11429;50.842;4.386;2022-08-18T12:07:25;30.20;99.90
22526;DHT22;11429;50.842;4.386;2022-08-18T12:09:35;28.90;99.90
22526;DHT22;11429;50.842;4.386;2022-08-18T12:12:28;28.20;99.90
22526;DHT22;11429;50.842;4.386;2022-08-18T12:17:24;29.30;99.90
22526;DHT22;11429;50.842;4.386;2022-08-18T12:19:50;30.00;99.90
22526;DHT22;11429;50.842;4.386;2022-08-18T12:22:28;30.80;98.20
22526;DHT22;11429;50.842;4.386;2022-08-18T12:24:56;31.40;97.10
22526;DHT22;11429;50.842;4.386;2022-08-18T12:27:24;31.90;96.60
22526;DHT22;11429;50.842;4.386;2022-08-18T12:29:52;31.90;96.50
22526;DHT22;11429;50.842;4.386;2022-08-18T12:32:23;31.50;96.70
22526;DHT22;11429;50.842;4.386;2022-08-18T12:34:49;30.80;98.00
22526;DHT22;11429;50.842;4.386;2022-08-18T12:37:21;30.60;98.60
22526;DHT22;11429;50.842;4.386;2022-08-18T12:39:47;30.10;99.60
22526;DHT22;11429;50.842;4.386;2022-08-18T12:42:13;29.10;99.90
22526;DHT22;11429;50.842;4.386;2022-08-18T12:44:40;29.00;99.90
22526;DHT22;11429;50.842;4.386;2022-08-18T12:47:16;28.80;99.90
22526;DHT22;11429;50.842;4.386;2022-08-18T12:49:43;29.10;99.90
22526;DHT22;11429;50.842;4.386;2022-08-18T12:52:10;29.40;99.90
22526;DHT22;11429;50.842;4.386;2022-08-18T12:54:36;29.80;99.70
22526;DHT22;11429;50.842;4.386;2022-08-18T12:57:05;29.90;99.80
22526;DHT22;11429;50.842;4.386;2022-08-18T12:59:33;29.80;99.70
22526;DHT22;11429;50.842;4.386;2022-08-18T13:02:00;29.60;99.50
22526;DHT22;11429;50.842;4.386;2022-08-18T13:04:26;29.60;99.90
22526;DHT22;11429;50.842;4.386;2022-08-18T13:06:55;29.60;99.40
22526;DHT22;11429;50.842;4.386;2022-08-18T13:09:21;29.30;99.70
22526;DHT22;11429;50.842;4.386;2022-08-18T13:11:47;29.10;99.70
22526;DHT22;11429;50.842;4.386;2022-08-18T13:14:13;29.30;99.60
22526;DHT22;11429;50.842;4.386;2022-08-18T13:16:43;29.90;99.00
22526;DHT22;11429;50.842;4.386;2022-08-18T13:19:12;29.60;99.10
22526;DHT22;11429;50.842;4.386;2022-08-18T13:21:39;29.30;99.50
22526;DHT22;11429;50.842;4.386;2022-08-18T13:24:05;29.20;99.50
22526;DHT22;11429;50.842;4.386;2022-08-18T13:26:34;29.30;99.50
22526;DHT22;11429;50.842;4.386;2022-08-18T13:29:01;29.40;99.40
22526;DHT22;11429;50.842;4.386;2022-08-18T13:31:27;28.70;99.90
22526;DHT22;11429;50.842;4.386;2022-08-18T13:33:54;28.10;99.90
22526;DHT22;11429;50.842;4.386;2022-08-18T13:36:21;28.20;99.90
22526;DHT22;11429;50.842;4.386;2022-08-18T13:38:47;28.40;99.90
22526;DHT22;11429;50.842;4.386;2022-08-18T13:41:13;28.50;99.90
22526;DHT22;11429;50.842;4.386;2022-08-18T13:43:41;28.50;99.90
22526;DHT22;11429;50.842;4.386;2022-08-18T13:46:10;28.30;99.90
22526;DHT22;11429;50.842;4.386;2022-08-18T13:48:37;28.20;99.90
22526;DHT22;11429;50.842;4.386;2022-08-18T13:51:05;28.00;99.90
22526;DHT22;11429;50.842;4.386;2022-08-18T13:53:33;28.30;99.90
22526;DHT22;11429;50.842;4.386;2022-08-18T13:56:00;28.70;99.90
22526;DHT22;11429;50.842;4.386;2022-08-18T13:58:27;28.70;99.90
22526;DHT22;11429;50.842;4.386;2022-08-18T14:00:59;28.90;99.90
22526;DHT22;11429;50.842;4.386;2022-08-18T14:03:25;28.20;99.90
22526;DHT22;11429;50.842;4.386;2022-08-18T14:05:51;27.70;99.90
22526;DHT22;11429;50.842;4.386;2022-08-18T14:08:23;27.60;99.90
22526;DHT22;11429;50.842;4.386;2022-08-18T14:10:53;27.90;99.90
22526;DHT22;11429;50.842;4.386;2022-08-18T14:13:20;27.50;99.90
22526;DHT22;11429;50.842;4.386;2022-08-18T14:15:46;27.30;99.90
22526;DHT22;11429;50.842;4.386;2022-08-18T14:18:12;27.40;99.90
22526;DHT22;11429;50.842;4.386;2022-08-18T14:20:38;27.60;99.90
22526;DHT22;11429;50.842;4.386;2022-08-18T14:23:23;27.70;99.90
22526;DHT22;11429;50.842;4.386;2022-08-18T14:26:08;27.70;99.90
22526;DHT22;11429;50.842;4.386;2022-08-18T14:28:53;27.90;99.90
22526;DHT22;11429;50.842;4.386;2022-08-18T14:31:18;28.00;99.90
22526;DHT22;11429;50.842;4.386;2022-08-18T14:33:45;28.30;99.90
22526;DHT22;11429;50.842;4.386;2022-08-18T14:36:12;28.50;99.90
22526;DHT22;11429;50.842;4.386;2022-08-18T14:38:38;29.10;99.90
22526;DHT22;11429;50.842;4.386;2022-08-18T14:41:06;29.10;99.90
22526;DHT22;11429;50.842;4.386;2022-08-18T14:43:32;29.40;99.90
22526;DHT22;11429;50.842;4.386;2022-08-18T14:46:03;29.30;99.90
22526;DHT22;11429;50.842;4.386;2022-08-18T14:48:30;29.00;99.90
22526;DHT22;11429;50.842;4.386;2022-08-18T14:50:57;28.60;99.90
22526;DHT22;11429;50.842;4.386;2022-08-18T14:53:28;28.30;99.90
22526;DHT22;11429;50.842;4.386;2022-08-18T14:55:54;28.30;99.90
22526;DHT22;11429;50.842;4.386;2022-08-18T14:58:23;28.20;99.90
22526;DHT22;11429;50.842;4.386;2022-08-18T15:00:55;28.50;99.90
22526;DHT22;11429;50.842;4.386;2022-08-18T15:03:22;28.90;99.90
22526;DHT22;11429;50.842;4.386;2022-08-18T15:05:48;28.70;99.90
22526;DHT22;11429;50.842;4.386;2022-08-18T15:08:14;28.40;99.90
22526;DHT22;11429;50.842;4.386;2022-08-18T15:10:40;28.40;99.90
22526;DHT22;11429;50.842;4.386;2022-08-18T15:13:06;28.30;99.90
22526;DHT22;11429;50.842;4.386;2022-08-18T15:15:33;28.10;99.90
22526;DHT22;11429;50.842;4.386;2022-08-18T15:17:59;28.30;99.90
22526;DHT22;11429;50.842;4.386;2022-08-18T15:20:26;28.40;99.90
22526;DHT22;11429;50.842;4.386;2022-08-18T15:22:52;28.90;99.90
22526;DHT22;11429;50.842;4.386;2022-08-18T15:25:37;28.90;99.90
22526;DHT22;11429;50.842;4.386;2022-08-18T15:28:18;28.60;99.90
22526;DHT22;11429;50.842;4.386;2022-08-18T15:30:45;28.60;99.90
22526;DHT22;11429;50.842;4.386;2022-08-18T15:33:12;28.90;99.90
22526;DHT22;11429;50.842;4.386;2022-08-18T15:35:43;29.20;99.90
22526;DHT22;11429;50.842;4.386;2022-08-18T15:38:12;29.10;99.90
22526;DHT22;11429;50.842;4.386;2022-08-18T15:40:48;28.60;99.90
22526;DHT22;11429;50.842;4.386;2022-08-18T15:43:13;28.70;99.90
22526;DHT22;11429;50.842;4.386;2022-08-18T15:45:41;28.50;99.90
22526;DHT22;11429;50.842;4.386;2022-08-18T15:48:09;28.40;99.90
22526;DHT22;11429;50.842;4.386;2022-08-18T15:50:35;28.50;99.90
22526;DHT22;11429;50.842;4.386;2022-08-18T15:53:03;28.00;99.90
22526;DHT22;11429;50.842;4.386;2022-08-18T15:55:31;27.90;99.90
22526;DHT22;11429;50.842;4.386;2022-08-18T15:57:57;27.60;99.90
22526;DHT22;11429;50.842;4.386;2022-08-18T16:00:24;27.30;99.90
22526;DHT22;11429;50.842;4.386;2022-08-18T16:02:56;27.20;99.90
22526;DHT22;11429;50.842;4.386;2022-08-18T16:05:24;27.10;99.90
22526;DHT22;11429;50.842;4.386;2022-08-18T16:07:51;27.50;99.90
22526;DHT22;11429;50.842;4.386;2022-08-18T16:10:19;27.50;99.90
22526;DHT22;11429;50.842;4.386;2022-08-18T16:12:46;27.50;99.90
22526;DHT22;11429;50.842;4.386;2022-08-18T16:15:17;27.80;99.90
22526;DHT22;11429;50.842;4.386;2022-08-18T16:17:43;27.80;99.90
22526;DHT22;11429;50.842;4.386;2022-08-18T16:20:10;27.80;99.90
22526;DHT22;11429;50.842;4.386;2022-08-18T16:22:37;28.00;99.90
22526;DHT22;11429;50.842;4.386;2022-08-18T16:25:04;28.10;99.90
22526;DHT22;11429;50.842;4.386;2022-08-18T16:27:35;28.20;99.90
22526;DHT22;11429;50.842;4.386;2022-08-18T16:30:02;27.90;99.90
22526;DHT22;11429;50.842;4.386;2022-08-18T16:32:30;28.20;99.90
22526;DHT22;11429;50.842;4.386;2022-08-18T16:34:56;28.40;99.90
22526;DHT22;11429;50.842;4.386;2022-08-18T16:37:24;28.50;99.90
22526;DHT22;11429;50.842;4.386;2022-08-18T16:39:53;28.40;99.90
22526;DHT22;11429;50.842;4.386;2022-08-18T16:42:19;28.10;99.90
22526;DHT22;11429;50.842;4.386;2022-08-18T16:44:45;28.40;99.90
22526;DHT22;11429;50.842;4.386;2022-08-18T16:47:11;28.50;99.90
22526;DHT22;11429;50.842;4.386;2022-08-18T16:49:46;28.30;99.90
22526;DHT22;11429;50.842;4.386;2022-08-18T16:52:16;27.70;99.90
22526;DHT22;11429;50.842;4.386;2022-08-18T16:54:42;27.30;99.90
22526;DHT22;11429;50.842;4.386;2022-08-18T16:57:08;27.10;99.90
22526;DHT22;11429;50.842;4.386;2022-08-18T16:59:35;26.90;99.90
22526;DHT22;11429;50.842;4.386;2022-08-18T17:02:19;26.80;99.90
22526;DHT22;11429;50.842;4.386;2022-08-18T17:05:03;26.70;99.90
22526;DHT22;11429;50.842;4.386;2022-08-18T17:07:31;26.60;99.90
22526;DHT22;11429;50.842;4.386;2022-08-18T17:09:57;26.40;99.90
22526;DHT22;11429;50.842;4.386;2022-08-18T17:12:24;26.40;99.90
22526;DHT22;11429;50.842;4.386;2022-08-18T17:14:50;26.30;99.90
22526;DHT22;11429;50.842;4.386;2022-08-18T17:17:17;26.20;99.90
22526;DHT22;11429;50.842;4.386;2022-08-18T17:19:44;26.30;99.90
22526;DHT22;11429;50.842;4.386;2022-08-18T17:22:10;26.40;99.90
22526;DHT22;11429;50.842;4.386;2022-08-18T17:24:37;26.60;99.90
22526;DHT22;11429;50.842;4.386;2022-08-18T17:27:14;26.90;99.90
22526;DHT22;11429;50.842;4.386;2022-08-18T17:29:46;27.00;99.90
22526;DHT22;11429;50.842;4.386;2022-08-18T17:32:25;27.00;99.90
22526;DHT22;11429;50.842;4.386;2022-08-18T17:35:04;26.90;99.90
22526;DHT22;11429;50.842;4.386;2022-08-18T17:37:33;26.60;99.90
22526;DHT22;11429;50.842;4.386;2022-08-18T17:40:07;26.40;99.90
22526;DHT22;11429;50.842;4.386;2022-08-18T17:42:36;26.10;99.90
22526;DHT22;11429;50.842;4.386;2022-08-18T17:45:08;26.00;99.90
22526;DHT22;11429;50.842;4.386;2022-08-18T17:50:24;25.90;99.90
22526;DHT22;11429;50.842;4.386;2022-08-18T17:53:10;25.90;99.90
22526;DHT22;11429;50.842;4.386;2022-08-18T17:55:43;25.70;99.90
22526;DHT22;11429;50.842;4.386;2022-08-18T17:58:19;25.70;99.90
22526;DHT22;11429;50.842;4.386;2022-08-18T18:00:48;25.70;99.90
22526;DHT22;11429;50.842;4.386;2022-08-18T18:03:14;25.70;99.90
22526;DHT22;11429;50.842;4.386;2022-08-18T18:05:50;25.60;99.90
22526;DHT22;11429;50.842;4.386;2022-08-18T18:08:19;25.70;99.90
22526;DHT22;11429;50.842;4.386;2022-08-18T18:10:47;25.60;99.90
22526;DHT22;11429;50.842;4.386;2022-08-18T18:13:28;25.60;99.90
22526;DHT22;11429;50.842;4.386;2022-08-18T18:15:59;25.60;99.90
22526;DHT22;11429;50.842;4.386;2022-08-18T18:18:41;25.50;99.90
22526;DHT22;11429;50.842;4.386;2022-08-18T18:21:21;25.40;99.90
22526;DHT22;11429;50.842;4.386;2022-08-18T18:23:54;25.30;99.90
22526;DHT22;11429;50.842;4.386;2022-08-18T18:31:41;25.30;99.90
22526;DHT22;11429;50.842;4.386;2022-08-18T18:34:23;25.10;99.90
22526;DHT22;11429;50.842;4.386;2022-08-18T18:36:51;25.20;99.90